FNCT METAR and TAF | Updated Today

FNCT METAR

Catumbela Airport

Observation time: 2:44 hr. ago

FNCT 061700Z 27008KT 9999 FEW015 23/20 Q1010

Need help? Read our tutorial on how to read METARs or read the parsed version below.

Catumbela Airport (FNCT) METAR

  • Weather conditions on Thu, 06 Oct 2022 17:00:00 +0000 (2:44 hr. ago):
  • Present conditions: Dry
  • Clouds: A few at 457 meters
  • Visibility: Greater than 10 km
  • Wind: 270 degrees at 8 knots
  • Temperature: 23 celsius
  • Dew point: 20 celsius
  • Pressure: 1010 millibars
  • Remarks: None


Useful to know...

FNCT TAF

Catumbela Airport

TAF FNCT 061100Z 0612/0624 28010KT CAVOK BECMG 0616/0620 9999 SCT015
Observation time: 8:44 hr. ago
Need help? Read our tutorial on how to read TAFs or read the parsed version below.

Parsed version of TAF for Catumbela Airport (FNCT)

  • From 06 October at 12:00 UTC, to day 06 of the month at 24:00 UTC
  • Visibility: Greater than 10 km
  • Wind: 280 degrees at 10
  • Expected to arise soon, from 06 October at 16:00 UTC, to day 06 of the month at 20:00 UTC
  • Clouds: Scattered at 457 meters
  • Visibility: Greater than 10 km